createdAt,value
2022-09-07T00:00:40.956Z,16.3
2022-09-07T00:01:47.125Z,16.2
2022-09-07T00:02:53.278Z,16.1
2022-09-07T00:03:59.452Z,16
2022-09-07T00:05:05.628Z,16.1
2022-09-07T00:06:11.785Z,16
2022-09-07T00:07:16.970Z,16.1
2022-09-07T00:08:23.142Z,16.1
2022-09-07T00:09:29.314Z,16
2022-09-07T00:10:35.475Z,16
2022-09-07T00:11:41.653Z,16
2022-09-07T00:12:47.826Z,16
2022-09-07T00:13:53.988Z,16
2022-09-07T00:15:00.172Z,15.9
2022-09-07T00:16:06.337Z,15.8
2022-09-07T00:17:12.506Z,15.8
2022-09-07T00:18:18.698Z,15.7
2022-09-07T00:19:24.858Z,15.7
2022-09-07T00:20:31.023Z,15.8
2022-09-07T00:21:36.216Z,15.9
2022-09-07T00:22:42.385Z,15.9
2022-09-07T00:23:48.557Z,15.8
2022-09-07T00:24:54.728Z,15.8
2022-09-07T00:26:00.909Z,15.8
2022-09-07T00:27:07.073Z,15.8
2022-09-07T00:28:13.252Z,15.7
2022-09-07T00:29:19.427Z,15.9
2022-09-07T00:30:25.617Z,16
2022-09-07T00:31:31.816Z,16
2022-09-07T00:32:37.945Z,15.8
2022-09-07T00:33:44.119Z,15.8
2022-09-07T00:34:50.309Z,15.8
2022-09-07T00:35:55.490Z,15.7
2022-09-07T00:37:01.658Z,15.7
2022-09-07T00:38:07.820Z,15.7
2022-09-07T00:39:14.004Z,15.7
2022-09-07T00:40:20.168Z,15.7
2022-09-07T00:41:26.333Z,15.7
2022-09-07T00:42:32.501Z,15.6
2022-09-07T00:43:38.668Z,15.7
2022-09-07T00:44:44.839Z,15.8
2022-09-07T00:45:51.013Z,15.8
2022-09-07T00:46:57.186Z,15.9
2022-09-07T00:48:03.345Z,15.8
2022-09-07T00:49:09.528Z,15.7
2022-09-07T00:50:14.721Z,15.7
2022-09-07T00:51:20.884Z,15.6
2022-09-07T00:52:27.063Z,15.6
2022-09-07T00:53:33.242Z,15.6
2022-09-07T00:54:39.423Z,15.6
2022-09-07T00:55:45.608Z,15.5
2022-09-07T00:56:51.787Z,15.6
2022-09-07T00:57:57.963Z,15.5
2022-09-07T00:59:04.149Z,15.5
2022-09-07T01:00:10.340Z,15.5
2022-09-07T01:01:16.506Z,15.5
2022-09-07T01:02:22.706Z,15.5
2022-09-07T01:03:28.895Z,15.6
2022-09-07T01:04:35.064Z,15.6
2022-09-07T01:05:41.246Z,15.6
2022-09-07T01:06:46.445Z,15.6
2022-09-07T01:07:52.632Z,15.6
2022-09-07T01:08:58.817Z,15.6
2022-09-07T01:10:04.992Z,15.6
2022-09-07T01:11:11.164Z,15.6
2022-09-07T01:12:17.347Z,15.5
2022-09-07T01:13:23.537Z,15.6
2022-09-07T01:14:29.714Z,15.6
2022-09-07T01:15:35.906Z,15.5
2022-09-07T01:16:42.077Z,15.5
2022-09-07T01:17:48.260Z,15.6
2022-09-07T01:18:54.446Z,15.5
2022-09-07T01:20:00.636Z,15.6
2022-09-07T01:21:05.837Z,15.5
2022-09-07T01:22:12.006Z,15.5
2022-09-07T01:23:18.176Z,15.5
2022-09-07T01:24:24.360Z,15.4
2022-09-07T01:25:29.555Z,15.4
2022-09-07T01:26:35.751Z,15.4
2022-09-07T01:27:41.929Z,15.5
2022-09-07T01:28:48.113Z,15.5
2022-09-07T01:29:54.295Z,15.4
2022-09-07T01:31:00.481Z,15.3
2022-09-07T01:32:06.666Z,15.3
2022-09-07T01:33:12.847Z,15.3
2022-09-07T01:34:19.032Z,15.4
2022-09-07T01:35:25.223Z,15.4
2022-09-07T01:36:31.402Z,15.4
2022-09-07T01:37:37.587Z,15.4
2022-09-07T01:38:43.779Z,15.4
2022-09-07T01:39:48.985Z,15.5
2022-09-07T01:40:55.169Z,15.4
2022-09-07T01:42:01.352Z,15.4
2022-09-07T01:43:07.544Z,15.3
2022-09-07T01:44:13.718Z,15.3
2022-09-07T01:45:19.892Z,15.2
2022-09-07T01:46:26.078Z,15.1
2022-09-07T01:47:32.262Z,15.1
2022-09-07T01:48:38.444Z,15.1
2022-09-07T01:49:44.628Z,15.3
2022-09-07T01:50:50.818Z,15.3
2022-09-07T01:51:57.004Z,15.2
2022-09-07T01:53:03.190Z,15.1
2022-09-07T01:54:08.372Z,15.2
2022-09-07T01:55:14.556Z,15.1
2022-09-07T01:56:20.734Z,15
2022-09-07T01:57:26.928Z,15
2022-09-07T01:58:33.100Z,14.9
2022-09-07T01:59:39.284Z,14.9
2022-09-07T02:00:45.483Z,14.9
2022-09-07T02:01:51.668Z,14.9
2022-09-07T02:02:57.855Z,14.9
2022-09-07T02:04:04.040Z,15
2022-09-07T02:05:10.231Z,15
2022-09-07T02:06:16.420Z,15
2022-09-07T02:07:22.608Z,15
2022-09-07T02:08:28.804Z,15
2022-09-07T02:09:34.977Z,15
2022-09-07T02:10:41.173Z,15
2022-09-07T02:11:47.355Z,15
2022-09-07T02:12:53.535Z,15
2022-09-07T02:13:58.733Z,15
2022-09-07T02:15:04.908Z,15
2022-09-07T02:16:11.098Z,15.1
2022-09-07T02:17:17.291Z,15
2022-09-07T02:18:23.479Z,15
2022-09-07T02:19:29.655Z,14.9
2022-09-07T02:20:35.838Z,14.9
2022-09-07T02:21:42.016Z,14.9
2022-09-07T02:22:48.198Z,14.9
2022-09-07T02:23:54.379Z,14.8
2022-09-07T02:25:00.548Z,14.8
2022-09-07T02:26:06.761Z,14.8
2022-09-07T02:27:12.925Z,14.9
2022-09-07T02:28:18.132Z,14.8
2022-09-07T02:29:24.303Z,14.8
2022-09-07T02:30:30.481Z,14.7
2022-09-07T02:31:36.663Z,14.7
2022-09-07T02:32:42.858Z,14.7
2022-09-07T02:33:49.046Z,14.6
2022-09-07T02:34:55.223Z,14.6
2022-09-07T02:36:01.417Z,14.7
2022-09-07T02:37:07.594Z,14.7
2022-09-07T02:38:13.777Z,14.7
2022-09-07T02:39:19.964Z,14.7
2022-09-07T02:40:26.148Z,14.6
2022-09-07T02:41:32.346Z,14.6
2022-09-07T02:42:37.533Z,14.6
2022-09-07T02:43:43.730Z,14.6
2022-09-07T02:44:49.915Z,14.5
2022-09-07T02:45:56.100Z,14.5
2022-09-07T02:47:02.278Z,14.4
2022-09-07T02:48:08.461Z,14.4
2022-09-07T02:49:14.658Z,14.4
2022-09-07T02:50:20.840Z,14.4
2022-09-07T02:51:27.054Z,14.4
2022-09-07T02:52:33.230Z,14.3
2022-09-07T02:53:39.421Z,14.2
2022-09-07T02:54:45.608Z,14.2
2022-09-07T02:55:51.812Z,14.2
2022-09-07T02:56:56.997Z,14.1
2022-09-07T02:58:03.194Z,14.2
2022-09-07T02:59:09.388Z,14.4
2022-09-07T03:00:15.567Z,14.4
2022-09-07T03:01:21.776Z,14.4
2022-09-07T03:02:27.961Z,14.4
2022-09-07T03:03:34.143Z,14.3
2022-09-07T03:04:40.328Z,14.5
2022-09-07T03:05:46.517Z,14.4
2022-09-07T03:06:52.711Z,14.4
2022-09-07T03:07:58.913Z,14.4
2022-09-07T03:09:05.089Z,14.4
2022-09-07T03:10:11.276Z,14.5
2022-09-07T03:11:16.464Z,14.4
2022-09-07T03:12:22.656Z,14.4
2022-09-07T03:13:28.849Z,14.3
2022-09-07T03:14:35.038Z,14.2
2022-09-07T03:15:41.217Z,14.1
2022-09-07T03:16:47.398Z,14.3
2022-09-07T03:17:53.591Z,14.3
2022-09-07T03:18:59.786Z,14.3
2022-09-07T03:20:05.977Z,14.3
2022-09-07T03:21:12.163Z,14.3
2022-09-07T03:22:18.375Z,14.3
2022-09-07T03:23:24.554Z,14.2
2022-09-07T03:24:30.736Z,14.2
2022-09-07T03:25:35.940Z,14.2
2022-09-07T03:26:42.126Z,14.2
2022-09-07T03:27:48.311Z,14.2
2022-09-07T03:28:54.509Z,14.1
2022-09-07T03:30:00.707Z,14.1
2022-09-07T03:31:06.890Z,14.2
2022-09-07T03:32:13.092Z,14.1
2022-09-07T03:33:19.296Z,14.2
2022-09-07T03:34:25.481Z,14.2
2022-09-07T03:35:31.666Z,14.1
2022-09-07T03:36:37.862Z,14
2022-09-07T03:37:44.047Z,14
2022-09-07T03:38:50.242Z,14
2022-09-07T03:39:56.437Z,14.1
2022-09-07T03:41:01.636Z,14.1
2022-09-07T03:42:07.821Z,14.2
2022-09-07T03:43:14.021Z,14.2
2022-09-07T03:44:20.207Z,14.2
2022-09-07T03:45:26.397Z,14.2
2022-09-07T03:46:32.590Z,14.1
2022-09-07T03:47:38.779Z,14.1
2022-09-07T03:48:44.971Z,14
2022-09-07T03:49:51.158Z,14
2022-09-07T03:50:57.357Z,13.9
2022-09-07T03:52:03.547Z,14
2022-09-07T03:53:09.733Z,14
2022-09-07T03:54:15.928Z,14
2022-09-07T03:55:21.132Z,13.9
2022-09-07T03:56:27.321Z,14
2022-09-07T03:57:33.515Z,14.1
2022-09-07T03:58:39.695Z,14.2
2022-09-07T03:59:45.892Z,14.2
2022-09-07T04:00:52.086Z,14.1
2022-09-07T04:01:58.273Z,14
2022-09-07T04:03:04.467Z,14
2022-09-07T04:04:10.652Z,14.1
2022-09-07T04:05:16.840Z,14.2
2022-09-07T04:06:23.033Z,14.2
2022-09-07T04:07:29.234Z,14.2
2022-09-07T04:08:35.426Z,14.4
2022-09-07T04:09:41.611Z,14.3
2022-09-07T04:10:46.815Z,14.2
2022-09-07T04:11:53.015Z,14.3
2022-09-07T04:12:59.211Z,14.2
2022-09-07T04:14:05.401Z,14.2
2022-09-07T04:15:11.604Z,14.2
2022-09-07T04:16:17.799Z,14.1
2022-09-07T04:17:24.003Z,14.1
2022-09-07T04:18:30.184Z,14.2
2022-09-07T04:19:36.381Z,14.3
2022-09-07T04:20:42.558Z,14.3
2022-09-07T04:21:48.773Z,14.3
2022-09-07T04:22:54.952Z,14.3
2022-09-07T04:24:01.146Z,14.3
2022-09-07T04:25:06.350Z,14.3
2022-09-07T04:26:12.540Z,14.3
2022-09-07T04:27:18.727Z,14.2
2022-09-07T04:28:24.920Z,14.2
2022-09-07T04:29:31.115Z,14.2
2022-09-07T04:30:37.305Z,14.2
2022-09-07T04:31:43.495Z,14.2
2022-09-07T04:32:49.705Z,14.3
2022-09-07T04:33:55.872Z,14.3
2022-09-07T04:35:02.066Z,14.2
2022-09-07T04:36:08.256Z,14.3
2022-09-07T04:37:14.434Z,14.4
2022-09-07T04:38:20.622Z,14.4
2022-09-07T04:39:25.834Z,14.4
2022-09-07T04:40:32.010Z,14.4
2022-09-07T04:41:38.201Z,14.4
2022-09-07T04:42:44.383Z,14.4
2022-09-07T04:43:50.570Z,14.4
2022-09-07T04:44:56.753Z,14.4
2022-09-07T04:46:02.944Z,14.4
2022-09-07T04:47:09.130Z,14.4
2022-09-07T04:48:15.318Z,14.5
2022-09-07T04:49:21.502Z,14.5
2022-09-07T04:50:27.694Z,14.5
2022-09-07T04:51:33.881Z,14.6
2022-09-07T04:52:40.064Z,14.6
2022-09-07T04:53:45.275Z,14.6
2022-09-07T04:54:51.457Z,14.6
2022-09-07T04:55:57.633Z,14.6
2022-09-07T04:57:03.826Z,14.7
2022-09-07T04:58:09.999Z,14.7
2022-09-07T04:59:16.176Z,14.7
2022-09-07T05:00:22.360Z,14.8
2022-09-07T05:01:28.545Z,14.8
2022-09-07T05:02:34.728Z,14.8
2022-09-07T05:03:40.899Z,14.8
2022-09-07T05:04:47.077Z,14.9
2022-09-07T05:05:53.262Z,14.9
2022-09-07T05:06:58.465Z,15
2022-09-07T05:08:04.627Z,15
2022-09-07T05:09:10.813Z,15
2022-09-07T05:10:16.997Z,15.1
2022-09-07T05:11:23.177Z,15.2
2022-09-07T05:12:29.346Z,15.2
2022-09-07T05:13:35.526Z,15.3
2022-09-07T05:14:41.698Z,15.4
2022-09-07T05:15:47.878Z,15.5
2022-09-07T05:16:54.047Z,15.6
2022-09-07T05:18:00.221Z,15.6
2022-09-07T05:19:06.388Z,15.5
2022-09-07T05:20:12.557Z,15.4
2022-09-07T05:21:17.742Z,15.3
2022-09-07T05:22:23.902Z,15.4
2022-09-07T05:23:30.072Z,15.5
2022-09-07T05:24:36.246Z,15.6
2022-09-07T05:25:42.409Z,15.6
2022-09-07T05:26:48.570Z,15.6
2022-09-07T05:27:54.739Z,15.7
2022-09-07T05:29:00.909Z,15.6
2022-09-07T05:30:07.070Z,15.6
2022-09-07T05:31:13.233Z,15.7
2022-09-07T05:32:19.400Z,15.9
2022-09-07T05:33:25.553Z,16.2
2022-09-07T05:34:31.706Z,16.8
2022-09-07T05:35:36.868Z,17.3
2022-09-07T05:36:43.016Z,17.8
2022-09-07T05:37:49.172Z,17.7
2022-09-07T05:38:55.322Z,17.8
2022-09-07T05:40:01.453Z,18
2022-09-07T05:41:07.580Z,17.8
2022-09-07T05:42:13.716Z,17.6
2022-09-07T05:43:19.834Z,17.6
2022-09-07T05:44:25.950Z,17.5
2022-09-07T05:45:32.065Z,17.5
2022-09-07T05:46:38.193Z,17.4
2022-09-07T05:47:44.309Z,17.4
2022-09-07T05:48:50.407Z,17.1
2022-09-07T05:49:56.515Z,16.7
2022-09-07T05:51:02.624Z,16.4
2022-09-07T05:52:08.741Z,16.3
2022-09-07T05:53:14.856Z,16.2
2022-09-07T05:54:20.965Z,16.2
2022-09-07T05:55:27.076Z,16.2
2022-09-07T05:56:33.200Z,16.3
2022-09-07T05:57:39.324Z,16.4
2022-09-07T05:58:44.463Z,16.3
2022-09-07T05:59:50.588Z,16.3
2022-09-07T06:00:56.713Z,16.2
2022-09-07T06:02:02.841Z,16.2
2022-09-07T06:03:08.971Z,16.4
2022-09-07T06:04:15.101Z,16.5
2022-09-07T06:05:21.225Z,16.6
2022-09-07T06:06:27.370Z,16.5
2022-09-07T06:07:33.502Z,16.6
2022-09-07T06:08:39.641Z,16.5
2022-09-07T06:09:45.782Z,16.3
2022-09-07T06:10:51.912Z,16.3
2022-09-07T06:11:58.051Z,16.4
2022-09-07T06:13:03.205Z,16.5
2022-09-07T06:14:09.352Z,16.6
2022-09-07T06:15:15.488Z,16.8
2022-09-07T06:16:21.623Z,17.1
2022-09-07T06:17:27.758Z,17.8
2022-09-07T06:18:33.899Z,18
2022-09-07T06:19:40.026Z,18.1
2022-09-07T06:20:46.159Z,18.1
2022-09-07T06:21:52.288Z,18.4
2022-09-07T06:22:58.412Z,18.5
2022-09-07T06:24:04.535Z,18.7
2022-09-07T06:25:10.664Z,18.8
2022-09-07T06:26:16.778Z,18.8
2022-09-07T06:27:22.893Z,18.7
2022-09-07T06:28:28.993Z,19.3
2022-09-07T06:29:35.105Z,19.5
2022-09-07T06:30:41.203Z,19.2
2022-09-07T06:31:47.310Z,19
2022-09-07T06:32:53.395Z,19.6
2022-09-07T06:33:59.486Z,20.1
2022-09-07T06:35:05.569Z,20.5
2022-09-07T06:36:11.656Z,20.7
2022-09-07T06:37:17.773Z,20.1
2022-09-07T06:38:23.849Z,19.6
2022-09-07T06:39:29.891Z,19.3
2022-09-07T06:40:35.961Z,19.5
2022-09-07T06:41:42.044Z,19.9
2022-09-07T06:42:48.108Z,19.9
2022-09-07T06:43:54.176Z,20.1
2022-09-07T06:45:00.222Z,20
2022-09-07T06:46:06.278Z,20.2
2022-09-07T06:47:12.329Z,20.6
2022-09-07T06:48:18.382Z,20.7
2022-09-07T06:49:24.434Z,20.2
2022-09-07T06:50:30.491Z,20.4
2022-09-07T06:51:36.536Z,20.8
2022-09-07T06:52:42.589Z,21.1
2022-09-07T06:53:48.709Z,20.6
2022-09-07T06:54:54.821Z,21.1
2022-09-07T06:56:00.931Z,21.6
2022-09-07T06:57:07.044Z,21.8
2022-09-07T06:58:13.154Z,21.6
2022-09-07T06:59:19.272Z,20.7
2022-09-07T07:00:25.379Z,19.9
2022-09-07T07:01:31.492Z,20
2022-09-07T07:02:37.596Z,20
2022-09-07T07:03:43.703Z,20
2022-09-07T07:04:49.815Z,20.3
2022-09-07T07:05:55.917Z,20.9
2022-09-07T07:07:02.025Z,21.2
2022-09-07T07:08:08.262Z,21.2
2022-09-07T07:09:13.443Z,21
2022-09-07T07:10:19.470Z,21.6
2022-09-07T07:11:25.499Z,22
2022-09-07T07:13:37.558Z,22.8
2022-09-07T07:14:43.559Z,23.1
2022-09-07T07:15:49.598Z,23.1
2022-09-07T07:16:55.606Z,23.2
2022-09-07T07:18:01.640Z,22.8
2022-09-07T07:19:07.646Z,22.6
2022-09-07T07:20:13.659Z,23
2022-09-07T07:21:19.677Z,23
2022-09-07T07:22:25.676Z,22.9
2022-09-07T07:23:31.698Z,21.8
2022-09-07T07:24:37.701Z,21.4
2022-09-07T07:25:43.716Z,21.5
2022-09-07T07:26:49.748Z,21.8
2022-09-07T07:27:55.740Z,22.1
2022-09-07T07:29:01.739Z,22.1
2022-09-07T07:30:07.778Z,21.9
2022-09-07T07:31:13.775Z,21.6
2022-09-07T07:32:19.785Z,21.2
2022-09-07T07:33:25.793Z,20.6
2022-09-07T07:34:31.808Z,20.3
2022-09-07T07:35:37.829Z,20.7
2022-09-07T07:36:43.941Z,21.3
2022-09-07T07:37:50.028Z,21.3
2022-09-07T07:38:56.133Z,21.6
2022-09-07T07:40:02.254Z,22
2022-09-07T07:41:08.327Z,22.2
2022-09-07T07:42:14.421Z,22.2
2022-09-07T07:43:20.586Z,22
2022-09-07T07:44:26.633Z,21.2
2022-09-07T07:45:32.736Z,21.2
2022-09-07T07:46:38.855Z,21
2022-09-07T07:47:44.978Z,20.6
2022-09-07T07:48:51.080Z,20.4
2022-09-07T07:49:57.195Z,19.9
2022-09-07T07:51:03.432Z,19.9
2022-09-07T07:52:08.634Z,19.9
2022-09-07T07:53:14.681Z,20.2
2022-09-07T07:54:20.718Z,20.5
2022-09-07T07:55:26.765Z,20.8
2022-09-07T07:56:32.832Z,21.2
2022-09-07T07:57:38.855Z,20.9
2022-09-07T07:58:44.896Z,20.6
2022-09-07T07:59:50.971Z,20.5
2022-09-07T08:00:56.993Z,20.8
2022-09-07T08:02:03.051Z,20.8
2022-09-07T08:03:09.095Z,20.5
2022-09-07T08:04:15.146Z,20
2022-09-07T08:05:21.205Z,19.8
2022-09-07T08:06:27.271Z,19.9
2022-09-07T08:07:33.355Z,20.1
2022-09-07T08:08:39.376Z,20.3
2022-09-07T08:09:45.442Z,20.5
2022-09-07T08:10:51.519Z,20.9
2022-09-07T08:11:57.579Z,21.1
2022-09-07T08:13:03.634Z,21
2022-09-07T08:14:09.688Z,21
2022-09-07T08:15:15.751Z,21.1
2022-09-07T08:16:21.823Z,21.1
2022-09-07T08:17:27.887Z,21.2
2022-09-07T08:18:33.950Z,21.2
2022-09-07T08:19:40.111Z,21.4
2022-09-07T08:20:46.239Z,21.4
2022-09-07T08:21:52.380Z,21.2
2022-09-07T08:22:58.539Z,21.2
2022-09-07T08:24:04.678Z,21
2022-09-07T08:25:10.835Z,21
2022-09-07T08:26:16.972Z,20.9
2022-09-07T08:27:23.130Z,21
2022-09-07T08:28:29.314Z,20.8
2022-09-07T08:29:35.434Z,20.4
2022-09-07T08:30:41.581Z,20.3
2022-09-07T08:31:47.729Z,20.7
2022-09-07T08:32:53.880Z,21.1
2022-09-07T08:34:00.154Z,21.2
2022-09-07T08:35:05.376Z,21.1
2022-09-07T08:36:11.471Z,21.2
2022-09-07T08:37:17.525Z,21.1
2022-09-07T08:38:23.603Z,20.9
2022-09-07T08:39:29.668Z,20.5
2022-09-07T08:40:35.735Z,20.5
2022-09-07T08:41:41.819Z,20.4
2022-09-07T08:42:47.885Z,20.5
2022-09-07T08:43:53.965Z,20.3
2022-09-07T08:45:00.135Z,20.3
2022-09-07T08:46:06.185Z,20.2
2022-09-07T08:47:12.201Z,20.2
2022-09-07T08:48:18.333Z,20.2
2022-09-07T08:49:24.378Z,20.2
2022-09-07T08:50:30.453Z,20.3
2022-09-07T08:51:36.531Z,20.5
2022-09-07T08:52:42.623Z,20.5
2022-09-07T08:53:48.707Z,20.5
2022-09-07T08:54:54.793Z,20.6
2022-09-07T08:56:00.895Z,20.6
2022-09-07T08:57:06.982Z,20.5
2022-09-07T08:58:13.081Z,20.6
2022-09-07T08:59:19.158Z,20.6
2022-09-07T09:00:25.251Z,20.5
2022-09-07T09:01:31.344Z,20.4
2022-09-07T09:02:37.510Z,20.4
2022-09-07T09:03:43.759Z,20.4
2022-09-07T09:04:49.931Z,20.6
2022-09-07T09:05:56.127Z,20.7
2022-09-07T09:07:02.216Z,20.9
2022-09-07T09:08:08.348Z,20.9
2022-09-07T09:09:14.516Z,20.7
2022-09-07T09:10:20.680Z,20.7
2022-09-07T09:11:26.893Z,20.8
2022-09-07T09:12:33.012Z,20.7
2022-09-07T09:13:39.186Z,20.7
2022-09-07T09:14:45.387Z,20.9
2022-09-07T09:15:51.530Z,20.9
2022-09-07T09:16:57.807Z,20.9
2022-09-07T09:18:03.075Z,20.7
2022-09-07T09:19:09.174Z,20.8
2022-09-07T09:20:15.258Z,20.8
2022-09-07T09:21:21.339Z,21
2022-09-07T09:22:27.444Z,21
2022-09-07T09:23:33.553Z,21
2022-09-07T09:24:39.647Z,21.1
2022-09-07T09:25:45.711Z,21.2
2022-09-07T09:26:51.797Z,21.2
2022-09-07T09:27:57.915Z,21.4
2022-09-07T09:29:03.971Z,21.5
2022-09-07T09:30:10.069Z,21.8
2022-09-07T09:31:16.142Z,21.6
2022-09-07T09:32:22.237Z,21.4
2022-09-07T09:33:28.322Z,21.4
2022-09-07T09:34:34.448Z,21.2
2022-09-07T09:35:40.503Z,21.2
2022-09-07T09:36:46.593Z,21.3
2022-09-07T09:37:52.670Z,21.4
2022-09-07T09:38:58.781Z,21.2
2022-09-07T09:40:04.864Z,21.1
2022-09-07T09:41:10.995Z,21.3
2022-09-07T09:42:17.061Z,21.2
2022-09-07T09:43:23.146Z,21.3
2022-09-07T09:44:29.249Z,21.3
2022-09-07T09:45:35.414Z,21.3
2022-09-07T09:46:41.577Z,21.5
2022-09-07T09:47:47.751Z,21.5
2022-09-07T09:48:53.917Z,21.5
2022-09-07T09:50:00.116Z,21.7
2022-09-07T09:51:06.264Z,21.8
2022-09-07T09:52:12.421Z,22.1
2022-09-07T09:53:18.611Z,22.2
2022-09-07T09:54:24.779Z,22.7
2022-09-07T09:55:30.935Z,23.1
2022-09-07T09:56:37.111Z,23.6
2022-09-07T09:57:43.273Z,24
2022-09-07T09:58:49.449Z,24
2022-09-07T09:59:55.731Z,24.6
2022-09-07T10:01:00.971Z,25
2022-09-07T10:02:07.074Z,24.6
2022-09-07T10:03:13.129Z,24.8
2022-09-07T10:04:19.253Z,24.8
2022-09-07T10:05:25.281Z,24.8
2022-09-07T10:06:31.395Z,24.4
2022-09-07T10:07:37.428Z,24.1
2022-09-07T10:08:43.532Z,24.2
2022-09-07T10:09:49.625Z,24.4
2022-09-07T10:10:55.621Z,24.1
2022-09-07T10:12:01.683Z,24.2
2022-09-07T10:13:07.749Z,24.4
2022-09-07T10:14:13.803Z,24.7
2022-09-07T10:15:19.881Z,24.7
2022-09-07T10:16:25.940Z,25
2022-09-07T10:17:32.012Z,25.8
2022-09-07T10:18:38.059Z,25.2
2022-09-07T10:19:44.149Z,24.6
2022-09-07T10:20:50.205Z,24.5
2022-09-07T10:21:56.231Z,24.5
2022-09-07T10:23:02.339Z,25.1
2022-09-07T10:24:08.341Z,25.3
2022-09-07T10:25:14.434Z,25.3
2022-09-07T10:26:20.467Z,25.1
2022-09-07T10:27:26.498Z,25
2022-09-07T10:28:32.648Z,24.3
2022-09-07T10:29:38.769Z,23.5
2022-09-07T10:30:44.916Z,23.3
2022-09-07T10:31:51.040Z,23.1
2022-09-07T10:32:57.208Z,23.2
2022-09-07T10:34:03.303Z,23.3
2022-09-07T10:35:09.430Z,23.4
2022-09-07T10:36:15.629Z,23.6
2022-09-07T10:37:21.707Z,23.3
2022-09-07T10:38:27.835Z,23.1
2022-09-07T10:39:33.956Z,23.3
2022-09-07T10:40:40.099Z,23.2
2022-09-07T10:41:46.231Z,23.4
2022-09-07T10:42:52.491Z,23.4
2022-09-07T10:43:57.739Z,23.3
2022-09-07T10:45:03.750Z,23.3
2022-09-07T10:46:09.819Z,23.5
2022-09-07T10:47:15.889Z,23.7
2022-09-07T10:48:21.969Z,24
2022-09-07T10:49:27.987Z,24.1
2022-09-07T10:50:34.056Z,23.9
2022-09-07T10:51:40.122Z,23.5
2022-09-07T10:52:46.177Z,23.2
2022-09-07T10:53:52.264Z,23.6
2022-09-07T10:54:58.302Z,24
2022-09-07T10:56:04.390Z,24.6
2022-09-07T10:57:10.467Z,25.7
2022-09-07T10:58:16.484Z,26.4
2022-09-07T10:59:22.585Z,27.3
2022-09-07T11:00:28.637Z,27
2022-09-07T11:01:34.639Z,26.9
2022-09-07T11:02:40.685Z,26.6
2022-09-07T11:03:46.748Z,26.4
2022-09-07T11:04:52.801Z,25.9
2022-09-07T11:05:58.861Z,26.2
2022-09-07T11:07:04.912Z,26.5
2022-09-07T11:08:10.964Z,26
2022-09-07T11:09:17.013Z,26.1
2022-09-07T11:10:23.067Z,25.5
2022-09-07T11:11:29.179Z,25.2
2022-09-07T11:12:35.307Z,25.3
2022-09-07T11:13:41.423Z,25.5
2022-09-07T11:14:47.575Z,25.1
2022-09-07T11:15:53.683Z,25.4
2022-09-07T11:16:59.810Z,25.6
2022-09-07T11:18:05.920Z,25.3
2022-09-07T11:19:12.044Z,25.1
2022-09-07T11:20:18.174Z,24.8
2022-09-07T11:21:24.297Z,24.7
2022-09-07T11:22:30.422Z,24.6
2022-09-07T11:23:36.555Z,24.4
2022-09-07T11:24:42.660Z,24.9
2022-09-07T11:25:48.912Z,25.7
2022-09-07T11:26:54.100Z,26.1
2022-09-07T11:28:00.184Z,25.6
2022-09-07T11:29:06.191Z,25.6
2022-09-07T11:30:12.243Z,25
2022-09-07T11:31:18.289Z,25.2
2022-09-07T11:32:24.352Z,25.3
2022-09-07T11:33:30.419Z,25.2
2022-09-07T11:34:36.456Z,24.6
2022-09-07T11:35:42.457Z,24.3
2022-09-07T11:36:48.499Z,24
2022-09-07T11:37:54.558Z,23.9
2022-09-07T11:39:00.633Z,24.8
2022-09-07T11:40:06.723Z,25.7
2022-09-07T11:41:12.723Z,26.7
2022-09-07T11:42:18.728Z,27.4
2022-09-07T11:43:24.757Z,27.3
2022-09-07T11:44:30.804Z,27.1
2022-09-07T11:45:36.885Z,26.5
2022-09-07T11:46:42.875Z,26.3
2022-09-07T11:47:48.914Z,25.6
2022-09-07T11:48:54.992Z,25.6
2022-09-07T11:50:00.984Z,25.9
2022-09-07T11:51:07.015Z,26.6
2022-09-07T11:52:13.130Z,26.2
2022-09-07T11:53:19.116Z,26.3
2022-09-07T11:54:25.202Z,25.7
2022-09-07T11:55:31.310Z,26.2
2022-09-07T11:56:37.446Z,26.3
2022-09-07T11:57:43.552Z,26.2
2022-09-07T11:58:49.641Z,25.9
2022-09-07T11:59:55.770Z,26
2022-09-07T12:01:01.860Z,26.4
2022-09-07T12:02:07.973Z,26.9
2022-09-07T12:03:14.091Z,26.9
2022-09-07T12:04:20.204Z,27
2022-09-07T12:05:26.333Z,27.2
2022-09-07T12:06:32.439Z,27.6
2022-09-07T12:07:38.542Z,28.1
2022-09-07T12:08:44.807Z,27.8
2022-09-07T12:09:51.025Z,27.6
2022-09-07T12:10:57.276Z,27.6
2022-09-07T12:12:03.495Z,28.1
2022-09-07T12:13:08.692Z,28.1
2022-09-07T12:14:14.728Z,27.2
2022-09-07T12:15:20.763Z,27.1
2022-09-07T12:16:26.809Z,26.5
2022-09-07T12:17:32.856Z,27
2022-09-07T12:18:38.870Z,27.5
2022-09-07T12:19:44.888Z,27.7
2022-09-07T12:20:50.985Z,27.5
2022-09-07T12:21:57.011Z,27.7
2022-09-07T12:23:02.989Z,27.6
2022-09-07T12:24:09.024Z,28.1
2022-09-07T12:25:15.045Z,28.4
2022-09-07T12:26:21.121Z,28.5
2022-09-07T12:27:27.101Z,27.5
2022-09-07T12:28:33.136Z,27
2022-09-07T12:29:39.185Z,27.5
2022-09-07T12:30:45.205Z,27.2
2022-09-07T12:31:51.206Z,27.2
2022-09-07T12:32:57.236Z,27.2
2022-09-07T12:34:03.265Z,27.5
2022-09-07T12:35:09.296Z,27.4
2022-09-07T12:36:15.327Z,27.9
2022-09-07T12:37:21.360Z,28.4
2022-09-07T12:38:27.382Z,28.8
2022-09-07T12:39:33.384Z,28.9
2022-09-07T12:40:39.475Z,29.4
2022-09-07T12:41:45.569Z,28.5
2022-09-07T12:42:51.680Z,27.8
2022-09-07T12:43:57.778Z,27
2022-09-07T12:45:03.869Z,27.4
2022-09-07T12:46:09.964Z,27.9
2022-09-07T12:47:16.085Z,28.3
2022-09-07T12:48:22.197Z,28.5
2022-09-07T12:49:28.255Z,28.5
2022-09-07T12:50:34.325Z,28.9
2022-09-07T12:51:40.467Z,28.5
2022-09-07T12:52:46.556Z,27.8
2022-09-07T12:53:52.637Z,27.9
2022-09-07T12:54:58.813Z,28.1
2022-09-07T12:56:05.054Z,28.2
2022-09-07T12:57:11.243Z,28.5
2022-09-07T12:58:17.496Z,28.3
2022-09-07T12:59:23.711Z,28.9
2022-09-07T13:00:29.907Z,29.2
2022-09-07T13:01:36.080Z,29.7
2022-09-07T13:02:42.284Z,28.6
2022-09-07T13:03:48.524Z,28
2022-09-07T13:04:54.727Z,28.7
2022-09-07T13:06:00.896Z,29.1
2022-09-07T13:07:07.128Z,28.9
2022-09-07T13:08:13.354Z,28.4
2022-09-07T13:11:10.202Z,28.2
2022-09-07T13:12:15.545Z,28.6
2022-09-07T13:13:21.538Z,29.1
2022-09-07T13:14:27.547Z,28.7
2022-09-07T13:15:33.544Z,28.6
2022-09-07T13:16:39.539Z,28.3
2022-09-07T13:17:45.555Z,28.1
2022-09-07T13:18:51.540Z,27.9
2022-09-07T13:19:57.622Z,27.7
2022-09-07T13:21:03.582Z,27.9
2022-09-07T13:22:09.569Z,28.3
2022-09-07T13:23:15.523Z,28.3
2022-09-07T13:24:21.588Z,28.2
2022-09-07T13:25:27.517Z,28
2022-09-07T13:26:33.514Z,28.1
2022-09-07T13:27:39.505Z,28.3
2022-09-07T13:28:45.555Z,28.3
2022-09-07T13:29:51.510Z,28.6
2022-09-07T13:30:57.504Z,28.9
2022-09-07T13:32:03.498Z,29.3
2022-09-07T13:33:09.502Z,29.7
2022-09-07T13:34:15.540Z,29.4
2022-09-07T13:35:21.482Z,28.7
2022-09-07T13:36:27.470Z,28.8
2022-09-07T13:37:33.488Z,29.4
2022-09-07T13:38:39.481Z,29.3
2022-09-07T13:39:45.546Z,29.6
2022-09-07T13:40:51.616Z,29.5
2022-09-07T13:41:57.700Z,28.5
2022-09-07T13:43:03.734Z,28.7
2022-09-07T13:44:09.805Z,28.8
2022-09-07T13:45:15.898Z,29.1
2022-09-07T13:46:21.944Z,29.6
2022-09-07T13:47:28.017Z,29.8
2022-09-07T13:48:34.085Z,30.2
2022-09-07T13:49:40.195Z,30.6
2022-09-07T13:50:46.224Z,30.7
2022-09-07T13:51:52.300Z,30.5
2022-09-07T13:52:58.364Z,30
2022-09-07T13:54:04.565Z,29.3
2022-09-07T13:55:10.717Z,29.3
2022-09-07T13:56:16.950Z,29.5
2022-09-07T13:57:23.101Z,30
2022-09-07T13:58:28.246Z,29.4
2022-09-07T13:59:34.298Z,29.1
2022-09-07T14:00:40.217Z,29.1
2022-09-07T14:01:46.207Z,29.3
2022-09-07T14:02:52.204Z,29.8
2022-09-07T14:03:58.188Z,29.9
2022-09-07T14:05:04.163Z,29.7
2022-09-07T14:06:10.156Z,29.7
2022-09-07T14:07:16.159Z,29.3
2022-09-07T14:08:22.122Z,29.3
2022-09-07T14:09:28.124Z,29.4
2022-09-07T14:10:34.125Z,29.8
2022-09-07T14:11:40.085Z,29.6
2022-09-07T14:12:46.059Z,29.6
2022-09-07T14:13:52.043Z,29.5
2022-09-07T14:14:58.020Z,29.5
2022-09-07T14:16:04.022Z,29.5
2022-09-07T14:17:10.006Z,29.9
2022-09-07T14:18:15.986Z,30.2
2022-09-07T14:19:22.025Z,30.4
2022-09-07T14:20:27.950Z,30.6
2022-09-07T14:21:33.936Z,30.5
2022-09-07T14:22:39.912Z,30.7
2022-09-07T14:23:45.935Z,30.2
2022-09-07T14:24:51.880Z,29.6
2022-09-07T14:25:57.932Z,29.4
2022-09-07T14:27:03.983Z,29.8
2022-09-07T14:28:10.050Z,30
2022-09-07T14:29:16.096Z,29.7
2022-09-07T14:30:22.156Z,29.5
2022-09-07T14:31:28.219Z,29.4
2022-09-07T14:32:34.284Z,29.6
2022-09-07T14:33:40.366Z,29.5
2022-09-07T14:34:46.397Z,29.3
2022-09-07T14:35:52.475Z,28.7
2022-09-07T14:36:58.508Z,29
2022-09-07T14:38:04.621Z,29.1
2022-09-07T14:39:10.689Z,28.7
2022-09-07T14:40:16.814Z,28.5
2022-09-07T14:41:23.048Z,28.5
2022-09-07T14:42:29.226Z,28.8
2022-09-07T14:43:35.379Z,29
2022-09-07T14:44:41.573Z,28.7
2022-09-07T14:45:47.742Z,28.8
2022-09-07T14:46:53.928Z,28.5
2022-09-07T14:48:00.139Z,28.1
2022-09-07T14:49:06.318Z,28